Time;durP1;ratioP1;P1;durP2;ratioP2;P2;SDS_P1;SDS_P2;PMS_P1;PMS_P2;Temp;Humidity;BMP_temperature;BMP_pressure;BME280_temperature;BME280_humidity;BME280_pressure;Samples;Min_cycle;Max_cycle;Signal;HPM_P1;HPM_P2
2022/04/26 03:37:23;;;;;;;;;;;;;;;6.59;83.57;98421.39;108020;1279;22554;-75
2022/04/26 03:39:50;;;;;;;;;;;;;;;6.57;83.82;98424.27;108011;1279;22530;-75
2022/04/26 03:42:17;;;;;;;;;;;;;;;6.56;83.63;98424.68;108055;1279;22683;-74
2022/04/26 03:44:44;;;;;;;;;;;;;;;6.56;83.59;98424.85;108057;1279;22597;-73
2022/04/26 03:47:11;;;;;;;;;;;;;;;6.55;83.66;98427.48;108025;1279;23308;-76
2022/04/26 03:49:38;;;;;;;;;;;;;;;6.57;83.64;98426.36;108004;1278;22645;-75
2022/04/26 03:52:05;;;;;;;;;;;;;;;6.63;83.27;98427.25;108029;1279;22532;-75
2022/04/26 03:54:32;;;;;;;;;;;;;;;6.67;83.37;98430.67;108051;1279;25347;-75
2022/04/26 03:56:59;;;;;;;;;;;;;;;6.69;83.16;98431.08;108033;1279;22553;-73
2022/04/26 03:59:25;;;;;;;;;;;;;;;6.72;83.52;98434.90;108042;1278;24410;-75
2022/04/26 04:01:52;;;;;;;;;;;;;;;6.74;83.68;98436.20;108036;1279;22597;-77
2022/04/26 04:04:20;;;;;;;;;;;;;;;6.76;83.59;98440.41;108019;1279;24228;-76
2022/04/26 04:06:46;;;;;;;;;;;;;;;6.76;83.57;98444.74;108061;1279;22541;-73
2022/04/26 04:09:13;;;;;;;;;;;;;;;6.74;83.41;98444.81;108076;1279;22541;-74
2022/04/26 04:11:40;;;;;;;;;;;;;;;6.73;83.18;98448.86;108058;1278;22680;-75
2022/04/26 04:14:07;;;;;;;;;;;;;;;6.75;83.10;98449.13;108032;1279;22516;-74
2022/04/26 04:16:34;;;;;;;;;;;;;;;6.76;83.18;98457.36;108031;1279;26136;-77
2022/04/26 04:19:20;;;;;;;;;;;;;;;6.79;83.42;98460.31;108005;1279;22632;-75
2022/04/26 04:21:48;;;;;;;;;;;;;;;6.84;83.64;98461.61;107958;1279;22618;-73
2022/04/26 04:24:15;;;;;;;;;;;;;;;6.86;83.59;98462.07;107905;1279;22704;-74
2022/04/26 04:26:42;;;;;;;;;;;;;;;6.88;83.55;98468.20;107962;1279;22535;-75
2022/04/26 04:29:09;;;;;;;;;;;;;;;6.89;83.44;98469.14;107950;1279;22627;-76
2022/04/26 04:31:36;;;;;;;;;;;;;;;6.89;83.35;98471.88;107968;1279;22671;-76
2022/04/26 04:34:03;;;;;;;;;;;;;;;6.91;83.08;98473.38;107953;1279;23129;-76
2022/04/26 04:36:29;;;;;;;;;;;;;;;6.93;83.06;98477.40;107983;1279;23096;-76
2022/04/26 04:38:56;;;;;;;;;;;;;;;6.95;83.20;98475.77;107984;1279;23539;-76
2022/04/26 04:41:24;;;;;;;;;;;;;;;6.96;83.42;98475.85;107938;1279;22533;-73
2022/04/26 04:43:51;;;;;;;;;;;;;;;6.97;83.74;98484.15;107969;1279;22695;-72
2022/04/26 04:46:18;;;;;;;;;;;;;;;6.98;83.51;98482.18;107950;1279;22684;-73
2022/04/26 04:48:45;;;;;;;;;;;;;;;6.98;83.43;98485.29;107969;1279;22598;-73
2022/04/26 04:51:12;;;;;;;;;;;;;;;6.99;83.44;98483.83;107988;1279;26495;-74
2022/04/26 04:53:38;;;;;;;;;;;;;;;7.02;83.25;98487.16;107967;1279;23887;-70
2022/04/26 04:56:09;;;;;;;;;;;;;;;7.07;83.00;98490.02;107963;1279;22694;-70
2022/04/26 04:58:36;;;;;;;;;;;;;;;7.12;82.94;98488.36;107936;1279;25375;-74
2022/04/26 05:01:03;;;;;;;;;;;;;;;7.16;83.34;98495.05;108015;1279;22517;-76
2022/04/26 05:03:29;;;;;;;;;;;;;;;7.20;83.40;98493.50;108010;1279;22603;-75
2022/04/26 05:05:56;;;;;;;;;;;;;;;7.20;83.37;98496.23;107955;1279;22530;-77
2022/04/26 05:08:24;;;;;;;;;;;;;;;7.22;83.18;98501.33;107926;1279;22545;-76
2022/04/26 05:10:52;;;;;;;;;;;;;;;7.22;82.91;98501.86;108045;1279;24261;-78
2022/04/26 05:13:19;;;;;;;;;;;;;;;7.23;83.04;98505.64;107993;1279;22506;-78
2022/04/26 05:15:46;;;;;;;;;;;;;;;7.26;82.85;98508.77;108041;1279;22709;-75
2022/04/26 05:18:13;;;;;;;;;;;;;;;7.30;82.80;98506.60;107958;1279;22971;-76
2022/04/26 05:20:40;;;;;;;;;;;;;;;7.36;83.07;98509.40;108073;1279;22780;-76
2022/04/26 05:25:53;;;;;;;;;;;;;;;7.46;83.29;98510.92;108066;1279;22519;-73
2022/04/26 05:28:19;;;;;;;;;;;;;;;7.52;83.22;98510.45;108061;1279;24304;-77
2022/04/26 05:30:46;;;;;;;;;;;;;;;7.59;82.99;98512.45;108058;1279;22589;-78
2022/04/26 05:33:13;;;;;;;;;;;;;;;7.65;82.74;98513.00;108013;1279;22607;-77
2022/04/26 05:35:40;;;;;;;;;;;;;;;7.72;82.51;98517.60;108003;1279;22662;-77
2022/04/26 05:38:07;;;;;;;;;;;;;;;7.79;82.36;98517.06;108026;1279;22537;-71
2022/04/26 05:40:34;;;;;;;;;;;;;;;7.88;82.31;98519.52;108071;1279;22521;-71
2022/04/26 05:43:01;;;;;;;;;;;;;;;7.95;82.36;98521.71;108324;1279;22541;-75
2022/04/26 05:45:27;;;;;;;;;;;;;;;8.00;82.47;98520.42;107970;1279;22677;-74
2022/04/26 05:47:54;;;;;;;;;;;;;;;8.05;82.32;98521.33;108048;1279;25504;-77
2022/04/26 05:50:21;;;;;;;;;;;;;;;8.11;82.65;98522.90;108021;1278;22604;-70
2022/04/26 05:52:48;;;;;;;;;;;;;;;8.13;82.15;98524.89;108005;1279;22569;-76
2022/04/26 05:55:15;;;;;;;;;;;;;;;8.17;82.09;98525.17;107968;1279;22530;-77
2022/04/26 05:57:42;;;;;;;;;;;;;;;8.23;81.88;98528.41;108020;1279;22534;-78
2022/04/26 06:00:10;;;;;;;;;;;;;;;8.25;81.56;98531.58;107984;1278;22551;-74
2022/04/26 06:02:37;;;;;;;;;;;;;;;8.31;81.44;98530.64;108022;1279;22594;-79
2022/04/26 06:05:04;;;;;;;;;;;;;;;8.35;81.43;98536.31;108028;1279;23374;-79
2022/04/26 06:07:31;;;;;;;;;;;;;;;8.38;81.21;98542.58;108063;1279;22649;-79
2022/04/26 06:09:58;;;;;;;;;;;;;;;8.39;81.58;98543.85;108034;1279;22530;-78
2022/04/26 06:12:28;;;;;;;;;;;;;;;8.40;81.44;98537.39;107967;1279;22628;-79
2022/04/26 06:14:55;;;;;;;;;;;;;;;8.40;81.42;98537.05;108016;1279;22551;-76
2022/04/26 06:17:22;;;;;;;;;;;;;;;8.42;81.54;98538.98;108035;1279;22695;-77
2022/04/26 06:19:49;;;;;;;;;;;;;;;8.48;81.41;98541.13;108022;1279;22650;-76
2022/04/26 06:22:16;;;;;;;;;;;;;;;8.51;81.13;98543.68;108127;1279;22610;-72
2022/04/26 06:24:44;;;;;;;;;;;;;;;8.52;81.10;98548.48;108292;1279;22685;-71
2022/04/26 06:27:11;;;;;;;;;;;;;;;8.52;80.71;98547.46;108296;1279;22719;-72
2022/04/26 06:29:38;;;;;;;;;;;;;;;8.52;80.13;98550.05;108302;1279;22675;-76
2022/04/26 06:32:05;;;;;;;;;;;;;;;8.53;80.17;98549.16;108032;1279;25367;-76
2022/04/26 06:34:32;;;;;;;;;;;;;;;8.50;79.84;98549.29;108025;1279;22516;-72
2022/04/26 06:36:59;;;;;;;;;;;;;;;8.46;80.27;98547.61;108041;1279;24358;-72
2022/04/26 06:39:26;;;;;;;;;;;;;;;8.46;80.80;98548.33;108051;1279;22558;-73
2022/04/26 06:41:53;;;;;;;;;;;;;;;8.43;80.78;98549.52;108031;1279;25280;-73
2022/04/26 06:44:19;;;;;;;;;;;;;;;8.41;80.51;98545.17;108017;1279;22529;-72
2022/04/26 06:46:46;;;;;;;;;;;;;;;8.40;80.31;98543.64;108030;1279;22520;-72
2022/04/26 06:49:13;;;;;;;;;;;;;;;8.45;80.04;98547.51;108051;1279;22601;-70
2022/04/26 06:51:44;;;;;;;;;;;;;;;8.52;79.78;98548.00;108005;1279;22607;-70
2022/04/26 06:54:11;;;;;;;;;;;;;;;8.57;79.56;98552.54;108071;1279;24225;-73
2022/04/26 06:56:40;;;;;;;;;;;;;;;8.60;79.65;98549.92;108018;1279;22562;-73
2022/04/26 06:59:07;;;;;;;;;;;;;;;8.67;79.87;98556.31;108050;1279;22669;-72
2022/04/26 07:01:34;;;;;;;;;;;;;;;8.74;79.37;98555.89;108016;1279;22667;-73
2022/04/26 07:04:01;;;;;;;;;;;;;;;8.84;79.33;98551.95;108074;1279;25357;-72
2022/04/26 07:06:28;;;;;;;;;;;;;;;8.98;79.40;98554.98;108056;1279;22532;-72
2022/04/26 07:08:56;;;;;;;;;;;;;;;9.12;79.63;98556.73;108033;1279;22528;-74
2022/04/26 07:11:22;;;;;;;;;;;;;;;9.25;79.19;98560.30;108036;1279;22542;-73
2022/04/26 07:13:52;;;;;;;;;;;;;;;9.38;79.41;98563.44;108051;1279;22534;-75
2022/04/26 07:16:19;;;;;;;;;;;;;;;9.49;79.46;98564.52;108045;1279;22548;-71
2022/04/26 07:18:46;;;;;;;;;;;;;;;9.59;79.09;98564.64;107999;1279;25184;-77
2022/04/26 07:21:13;;;;;;;;;;;;;;;9.68;78.85;98564.39;108011;1279;22672;-73
2022/04/26 07:23:40;;;;;;;;;;;;;;;9.72;78.15;98565.20;108016;1279;22534;-75
2022/04/26 07:26:06;;;;;;;;;;;;;;;9.67;78.19;98568.45;108054;1279;24202;-72
2022/04/26 07:28:33;;;;;;;;;;;;;;;9.63;77.79;98568.19;108009;1280;22610;-75
2022/04/26 07:31:00;;;;;;;;;;;;;;;9.64;77.84;98573.89;108039;1279;22736;-73
2022/04/26 07:36:12;;;;;;;;;;;;;;;9.50;77.75;98576.28;108020;1280;23096;-75
2022/04/26 07:38:39;;;;;;;;;;;;;;;9.49;77.52;98578.11;108044;1280;23397;-71
2022/04/26 07:41:07;;;;;;;;;;;;;;;9.51;77.47;98580.04;108064;1280;22550;-70
2022/04/26 07:43:34;;;;;;;;;;;;;;;9.58;77.31;98584.16;108036;1279;22529;-70
2022/04/26 07:46:01;;;;;;;;;;;;;;;9.67;77.52;98587.75;108011;1279;22672;-70
2022/04/26 07:48:28;;;;;;;;;;;;;;;9.72;77.47;98586.56;108015;1278;22647;-70
2022/04/26 07:50:55;;;;;;;;;;;;;;;9.71;77.86;98589.59;108029;1280;22516;-70
2022/04/26 07:53:25;;;;;;;;;;;;;;;9.72;77.80;98593.89;108032;1279;23247;-69
2022/04/26 07:55:52;;;;;;;;;;;;;;;9.74;77.44;98596.04;107993;1281;22548;-76
2022/04/26 07:58:19;;;;;;;;;;;;;;;9.70;77.19;98599.74;108062;1280;22529;-71
2022/04/26 08:00:45;;;;;;;;;;;;;;;9.64;77.11;98601.34;108001;1279;22673;-74
2022/04/26 08:03:13;;;;;;;;;;;;;;;9.63;76.86;98601.42;108058;1280;22606;-71
2022/04/26 08:05:40;;;;;;;;;;;;;;;9.65;76.49;98602.11;108052;1279;23064;-71
2022/04/26 08:08:07;;;;;;;;;;;;;;;9.70;76.43;98601.83;108018;1281;24262;-70
2022/04/26 08:10:35;;;;;;;;;;;;;;;9.83;76.25;98606.05;108017;1281;23226;-70
2022/04/26 08:13:02;;;;;;;;;;;;;;;9.93;76.17;98608.39;108056;1280;22542;-72
2022/04/26 08:15:29;;;;;;;;;;;;;;;10.02;76.02;98610.41;108051;1280;22550;-72
2022/04/26 08:17:56;;;;;;;;;;;;;;;10.05;75.85;98611.29;108147;1280;22571;-70
2022/04/26 08:20:24;;;;;;;;;;;;;;;10.07;75.71;98617.59;108279;1281;22618;-69
2022/04/26 08:22:51;;;;;;;;;;;;;;;10.13;75.37;98617.67;108309;1281;23903;-71
2022/04/26 08:28:04;;;;;;;;;;;;;;;10.40;75.19;98620.39;108301;1279;22905;-73
2022/04/26 08:30:30;;;;;;;;;;;;;;;10.49;75.26;98621.85;108334;1281;22672;-73
2022/04/26 08:32:57;;;;;;;;;;;;;;;10.57;75.20;98622.59;108296;1281;22519;-72
2022/04/26 08:35:26;;;;;;;;;;;;;;;10.58;74.84;98622.84;108287;1281;22528;-71
2022/04/26 08:37:53;;;;;;;;;;;;;;;10.53;74.82;98632.02;108293;1281;22614;-71
2022/04/26 08:40:20;;;;;;;;;;;;;;;10.58;74.41;98634.20;108270;1281;24089;-72
2022/04/26 08:42:49;;;;;;;;;;;;;;;10.67;74.69;98633.04;108277;1281;22597;-71
2022/04/26 08:45:19;;;;;;;;;;;;;;;10.84;74.52;98635.23;108271;1281;25559;-71
2022/04/26 08:53:22;;;;;;;;;;;;;;;11.32;73.80;98635.15;108299;1280;22534;-72
2022/04/26 08:55:50;;;;;;;;;;;;;;;11.44;73.14;98642.01;108313;1281;22541;-71
2022/04/26 08:58:18;;;;;;;;;;;;;;;11.44;72.68;98643.07;108365;1280;22628;-71
2022/04/26 09:01:08;;;;;;;;;;;;;;;11.50;72.42;98640.70;108283;1280;25462;-71
2022/04/26 09:03:39;;;;;;;;;;;;;;;11.57;72.12;98641.05;108177;1279;22528;-72
2022/04/26 09:06:12;;;;;;;;;;;;;;;11.61;72.30;98642.69;108272;1279;22536;-72
2022/04/26 09:08:40;;;;;;;;;;;;;;;11.61;71.89;98643.92;108282;1280;22531;-73
2022/04/26 09:11:21;;;;;;;;;;;;;;;11.56;71.23;98642.69;108316;1281;22620;-72
2022/04/26 09:13:48;;;;;;;;;;;;;;;11.58;71.48;98647.30;108313;1281;23173;-72
2022/04/26 09:16:16;;;;;;;;;;;;;;;11.54;71.01;98647.06;108303;1281;22544;-71
2022/04/26 09:18:51;;;;;;;;;;;;;;;11.48;70.83;98646.91;108278;1280;22686;-74
2022/04/26 09:21:18;;;;;;;;;;;;;;;11.43;70.75;98647.48;108289;1281;22554;-73
2022/04/26 09:23:46;;;;;;;;;;;;;;;11.33;70.67;98648.65;108311;1281;22531;-72
2022/04/26 09:26:15;;;;;;;;;;;;;;;11.25;70.80;98650.45;108300;1281;22752;-72
2022/04/26 09:28:42;;;;;;;;;;;;;;;11.23;70.65;98651.77;108279;1281;22531;-73
2022/04/26 09:31:19;;;;;;;;;;;;;;;11.27;70.28;98653.05;108281;1280;22530;-74
2022/04/26 09:33:51;;;;;;;;;;;;;;;11.28;70.62;98655.94;108281;1279;22518;-72
2022/04/26 09:36:20;;;;;;;;;;;;;;;11.32;71.00;98655.33;108349;1281;22557;-73
2022/04/26 09:38:55;;;;;;;;;;;;;;;11.33;70.78;98658.27;108283;1281;22684;-78
2022/04/26 09:41:22;;;;;;;;;;;;;;;11.33;70.50;98658.27;108271;1281;22694;-75
2022/04/26 09:44:03;;;;;;;;;;;;;;;11.45;70.09;98653.40;108266;1281;22524;-72
2022/04/26 09:46:42;;;;;;;;;;;;;;;11.60;70.11;98657.05;108301;1280;22544;-71
2022/04/26 09:49:10;;;;;;;;;;;;;;;11.68;69.71;98653.38;108274;1281;22657;-71
2022/04/26 09:51:37;;;;;;;;;;;;;;;11.74;69.46;98656.10;108303;1281;22692;-77
2022/04/26 09:54:04;;;;;;;;;;;;;;;11.85;69.45;98653.11;108305;1281;22685;-72
2022/04/26 09:56:31;;;;;;;;;;;;;;;11.91;68.98;98653.55;108262;1281;22692;-72
2022/04/26 09:59:00;;;;;;;;;;;;;;;11.95;69.11;98655.71;108309;1281;25333;-73
2022/04/26 10:01:29;;;;;;;;;;;;;;;12.07;68.49;98654.91;108290;1281;22541;-73
2022/04/26 10:04:02;;;;;;;;;;;;;;;12.15;68.14;98655.55;108314;1281;22544;-72
2022/04/26 10:06:40;;;;;;;;;;;;;;;12.21;68.28;98650.35;108304;1280;24391;-71
2022/04/26 10:09:08;;;;;;;;;;;;;;;12.26;68.00;98650.90;108361;1281;26602;-73
2022/04/26 10:11:36;;;;;;;;;;;;;;;12.31;67.83;98651.92;108165;1280;22611;-73
2022/04/26 10:14:12;;;;;;;;;;;;;;;12.30;66.68;98648.32;108025;1281;22540;-71
2022/04/26 10:16:39;;;;;;;;;;;;;;;12.27;67.13;98655.16;108060;1278;22555;-71
2022/04/26 10:19:07;;;;;;;;;;;;;;;12.33;66.91;98653.03;108002;1278;23133;-70
2022/04/26 10:21:40;;;;;;;;;;;;;;;12.28;66.25;98653.88;108032;1281;22552;-70
2022/04/26 10:24:13;;;;;;;;;;;;;;;12.38;67.10;98652.48;108072;1281;22674;-70
2022/04/26 10:26:40;;;;;;;;;;;;;;;12.43;65.94;98653.18;108041;1279;22536;-72
2022/04/26 10:29:07;;;;;;;;;;;;;;;12.50;66.11;98657.52;108006;1279;22846;-72
2022/04/26 10:31:37;;;;;;;;;;;;;;;12.61;65.92;98659.73;108008;1279;22646;-72
2022/04/26 10:34:32;;;;;;;;;;;;;;;12.79;65.45;98652.98;108002;1279;22569;-72
2022/04/26 10:37:00;;;;;;;;;;;;;;;12.92;65.40;98652.84;108019;1280;24328;-72
2022/04/26 10:39:37;;;;;;;;;;;;;;;13.06;64.82;98656.55;108049;1279;22553;-74
2022/04/26 10:42:10;;;;;;;;;;;;;;;13.20;64.79;98656.54;108019;1278;22537;-73
2022/04/26 10:44:41;;;;;;;;;;;;;;;13.25;65.00;98658.48;108049;1280;23141;-71
2022/04/26 10:47:09;;;;;;;;;;;;;;;13.36;64.79;98660.92;108031;1280;22596;-71
2022/04/26 10:49:35;;;;;;;;;;;;;;;13.45;64.54;98658.30;108052;1279;22535;-72
2022/04/26 10:52:02;;;;;;;;;;;;;;;13.44;64.03;98655.45;108059;1279;22691;-71
2022/04/26 10:54:53;;;;;;;;;;;;;;;13.53;63.77;98654.89;108055;1278;22545;-71
2022/04/26 10:57:19;;;;;;;;;;;;;;;13.54;63.85;98655.14;108022;1279;22576;-76
2022/04/26 10:59:47;;;;;;;;;;;;;;;13.58;63.34;98654.56;108010;1280;22520;-71
2022/04/26 11:02:15;;;;;;;;;;;;;;;13.57;63.23;98657.79;108061;1279;23011;-71
2022/04/26 11:04:42;;;;;;;;;;;;;;;13.66;63.24;98662.64;108053;1279;23987;-72
2022/04/26 11:07:13;;;;;;;;;;;;;;;13.67;62.83;98661.67;108024;1279;22552;-72
2022/04/26 11:09:49;;;;;;;;;;;;;;;13.74;63.34;98662.04;108003;1279;22594;-72
2022/04/26 11:12:29;;;;;;;;;;;;;;;13.73;63.00;98661.77;108291;1279;25255;-71
2022/04/26 11:15:00;;;;;;;;;;;;;;;13.68;62.60;98662.30;108269;1279;22536;-72
2022/04/26 11:17:29;;;;;;;;;;;;;;;13.72;63.09;98663.58;108278;1279;22565;-73
2022/04/26 11:19:57;;;;;;;;;;;;;;;13.73;62.75;98665.38;108279;1279;22775;-73
2022/04/26 11:22:25;;;;;;;;;;;;;;;13.73;62.04;98666.27;108297;1279;22746;-76
2022/04/26 11:30:35;;;;;;;;;;;;;;;13.54;61.56;98670.04;108302;1279;23732;-72
2022/04/26 11:33:02;;;;;;;;;;;;;;;13.55;61.92;98671.69;108280;1279;22536;-73
2022/04/26 11:35:29;;;;;;;;;;;;;;;13.57;61.73;98673.89;108270;1279;22602;-72
2022/04/26 11:37:58;;;;;;;;;;;;;;;13.56;61.38;98674.29;108269;1278;23426;-75
2022/04/26 11:40:27;;;;;;;;;;;;;;;13.55;61.55;98676.98;108296;1280;22535;-75
2022/04/26 11:42:58;;;;;;;;;;;;;;;13.59;61.40;98673.89;108305;1279;23802;-75
2022/04/26 11:45:29;;;;;;;;;;;;;;;13.66;61.15;98676.45;108294;1279;22699;-72
2022/04/26 11:47:57;;;;;;;;;;;;;;;13.77;60.55;98676.45;108286;1279;25226;-75
2022/04/26 11:50:25;;;;;;;;;;;;;;;13.78;59.16;98673.05;108283;1279;22627;-73
2022/04/26 11:52:56;;;;;;;;;;;;;;;13.81;58.66;98673.52;108300;1279;22788;-74
2022/04/26 11:55:24;;;;;;;;;;;;;;;13.99;60.12;98674.73;108291;1279;22598;-74
2022/04/26 11:57:52;;;;;;;;;;;;;;;14.20;59.78;98673.95;108321;1279;22543;-74
2022/04/26 12:00:21;;;;;;;;;;;;;;;14.38;59.74;98670.09;108315;1279;22518;-73
2022/04/26 12:02:49;;;;;;;;;;;;;;;14.60;59.19;98674.61;108149;1279;22595;-72
2022/04/26 12:05:19;;;;;;;;;;;;;;;14.63;58.15;98674.90;108044;1279;22550;-72
2022/04/26 12:07:46;;;;;;;;;;;;;;;14.70;58.77;98671.73;108016;1279;23408;-71
2022/04/26 12:10:30;;;;;;;;;;;;;;;14.82;58.05;98671.42;108010;1279;22682;-72
2022/04/26 12:12:58;;;;;;;;;;;;;;;15.10;58.09;98672.29;108040;1279;22735;-73
2022/04/26 12:15:29;;;;;;;;;;;;;;;15.22;57.43;98667.61;108039;1279;22782;-72
2022/04/26 12:18:07;;;;;;;;;;;;;;;15.33;56.38;98668.05;108047;1279;22664;-72
2022/04/26 12:20:35;;;;;;;;;;;;;;;15.62;57.10;98667.86;108011;1278;22549;-72
2022/04/26 12:23:03;;;;;;;;;;;;;;;15.92;56.17;98664.62;108043;1279;22583;-70
2022/04/26 12:25:33;;;;;;;;;;;;;;;16.25;57.19;98660.12;108021;1279;25461;-70
2022/04/26 12:28:09;;;;;;;;;;;;;;;16.43;57.15;98659.02;108013;1279;22695;-72
2022/04/26 12:30:39;;;;;;;;;;;;;;;16.60;56.85;98654.59;108037;1279;22630;-73
2022/04/26 12:33:06;;;;;;;;;;;;;;;16.62;56.05;98655.11;108010;1277;23917;-73
2022/04/26 12:35:33;;;;;;;;;;;;;;;16.62;55.29;98656.17;108024;1279;25338;-74
2022/04/26 12:38:04;;;;;;;;;;;;;;;16.36;54.58;98655.45;108075;1279;22540;-72
2022/04/26 12:40:30;;;;;;;;;;;;;;;16.23;54.90;98655.94;108054;1279;22544;-71
2022/04/26 12:42:57;;;;;;;;;;;;;;;16.08;55.63;98659.02;108048;1279;22561;-71
2022/04/26 12:45:25;;;;;;;;;;;;;;;15.90;55.12;98658.15;107994;1279;26564;-71
2022/04/26 12:51:20;;;;;;;;;;;;;;;15.25;54.68;98656.79;108038;1279;22687;-71
2022/04/26 12:53:51;;;;;;;;;;;;;;;15.09;54.96;98658.68;108078;1279;23956;-73
2022/04/26 12:56:19;;;;;;;;;;;;;;;14.82;55.30;98659.85;108016;1279;22681;-71
2022/04/26 12:58:48;;;;;;;;;;;;;;;14.71;54.57;98657.93;108036;1279;22559;-71
2022/04/26 13:01:15;;;;;;;;;;;;;;;14.51;55.04;98656.81;108039;1279;22589;-72
2022/04/26 13:03:42;;;;;;;;;;;;;;;14.39;55.39;98657.06;108014;1279;22563;-73
2022/04/26 13:06:09;;;;;;;;;;;;;;;14.23;55.44;98657.61;107999;1279;23241;-71
2022/04/26 13:08:37;;;;;;;;;;;;;;;14.09;55.70;98656.11;108002;1279;22543;-70
2022/04/26 13:11:04;;;;;;;;;;;;;;;14.05;55.91;98657.00;108018;1279;25360;-70
2022/04/26 13:13:32;;;;;;;;;;;;;;;13.96;56.01;98659.77;108156;1278;22542;-73
2022/04/26 13:15:59;;;;;;;;;;;;;;;13.87;56.02;98656.95;108022;1279;22595;-72
2022/04/26 13:18:28;;;;;;;;;;;;;;;13.74;56.11;98656.98;108016;1279;22705;-71
2022/04/26 13:20:56;;;;;;;;;;;;;;;13.62;55.85;98659.50;107910;1279;22986;-70
2022/04/26 13:23:23;;;;;;;;;;;;;;;13.43;56.13;98660.90;108014;1279;23012;-70
2022/04/26 13:25:51;;;;;;;;;;;;;;;13.39;56.31;98661.08;108034;1279;22561;-70
2022/04/26 13:28:18;;;;;;;;;;;;;;;13.31;56.19;98658.67;108007;1279;22521;-69
2022/04/26 13:30:46;;;;;;;;;;;;;;;13.28;56.43;98657.17;108006;1279;25363;-71
2022/04/26 13:33:13;;;;;;;;;;;;;;;13.25;56.48;98660.17;108031;1278;26511;-73
2022/04/26 13:35:40;;;;;;;;;;;;;;;13.26;56.52;98660.44;108046;1279;25275;-74
2022/04/26 13:38:11;;;;;;;;;;;;;;;13.19;56.40;98663.78;108035;1278;22678;-74
2022/04/26 13:40:38;;;;;;;;;;;;;;;13.11;57.21;98662.06;108000;1279;23052;-73
2022/04/26 13:43:06;;;;;;;;;;;;;;;13.17;57.15;98659.77;108018;1279;22532;-74
2022/04/26 13:45:33;;;;;;;;;;;;;;;13.10;57.16;98666.14;108050;1279;22544;-78
2022/04/26 13:48:04;;;;;;;;;;;;;;;13.08;57.46;98666.32;108028;1279;22545;-74
2022/04/26 13:50:31;;;;;;;;;;;;;;;13.11;57.61;98665.21;108041;1279;22552;-75
2022/04/26 13:52:57;;;;;;;;;;;;;;;13.10;57.47;98663.35;108006;1279;23036;-74
2022/04/26 13:55:26;;;;;;;;;;;;;;;13.03;57.31;98664.75;107997;1279;22708;-73
2022/04/26 13:57:54;;;;;;;;;;;;;;;13.01;57.25;98664.27;108021;1279;22688;-75
2022/04/26 14:00:21;;;;;;;;;;;;;;;13.02;57.41;98667.30;107575;1279;602826;-75
2022/04/26 14:02:48;;;;;;;;;;;;;;;13.07;57.35;98670.40;108022;1279;23038;-73
2022/04/26 14:05:16;;;;;;;;;;;;;;;13.17;57.22;98673.58;108035;1279;22617;-74
2022/04/26 14:07:46;;;;;;;;;;;;;;;13.14;56.75;98671.13;108028;1279;22658;-74
2022/04/26 14:10:14;;;;;;;;;;;;;;;13.04;56.68;98675.55;108022;1279;24231;-73
2022/04/26 14:12:41;;;;;;;;;;;;;;;13.06;57.07;98673.27;108023;1279;22667;-74
2022/04/26 14:23:29;;;;;;;;;;;;;;;13.15;56.43;98675.80;108017;1279;24369;-74
2022/04/26 14:25:56;;;;;;;;;;;;;;;13.12;56.20;98669.21;108041;1279;22550;-73
2022/04/26 14:28:25;;;;;;;;;;;;;;;13.12;55.72;98669.41;108096;1279;25346;-79
2022/04/26 14:30:53;;;;;;;;;;;;;;;13.07;55.75;98670.44;108296;1279;22535;-74
2022/04/26 14:33:19;;;;;;;;;;;;;;;13.04;55.90;98670.46;108291;1279;22598;-72
2022/04/26 14:35:47;;;;;;;;;;;;;;;13.03;56.04;98665.69;108308;1279;22536;-71
2022/04/26 14:38:14;;;;;;;;;;;;;;;13.04;56.08;98664.73;108304;1279;22688;-73
2022/04/26 14:40:41;;;;;;;;;;;;;;;13.02;56.03;98665.25;108293;1279;22515;-76
2022/04/26 14:43:09;;;;;;;;;;;;;;;13.05;56.10;98667.30;108300;1279;24224;-72
2022/04/26 14:45:42;;;;;;;;;;;;;;;13.01;55.55;98668.45;108300;1279;24090;-72
2022/04/26 14:48:10;;;;;;;;;;;;;;;12.86;55.57;98666.74;108315;1279;22630;-71
2022/04/26 14:50:37;;;;;;;;;;;;;;;12.78;55.89;98669.98;108318;1279;22537;-75
2022/04/26 14:53:04;;;;;;;;;;;;;;;12.69;55.77;98669.08;108287;1279;22541;-71
2022/04/26 14:55:31;;;;;;;;;;;;;;;12.62;56.14;98669.07;108306;1279;22540;-72
2022/04/26 14:57:58;;;;;;;;;;;;;;;12.54;56.23;98666.55;108310;1279;25245;-72
2022/04/26 15:00:25;;;;;;;;;;;;;;;12.51;56.33;98671.41;108297;1279;24442;-72
2022/04/26 15:02:52;;;;;;;;;;;;;;;12.51;56.37;98671.65;108319;1279;24329;-72
2022/04/26 15:05:19;;;;;;;;;;;;;;;12.49;56.55;98672.09;108292;1278;22530;-72
2022/04/26 15:10:32;;;;;;;;;;;;;;;12.74;56.66;98668.36;108300;1279;22704;-73
2022/04/26 15:18:30;;;;;;;;;;;;;;;13.23;55.50;98668.60;108284;1279;24434;-80
2022/04/26 15:20:57;;;;;;;;;;;;;;;13.29;55.29;98665.50;108347;1279;22510;-73
2022/04/26 15:23:24;;;;;;;;;;;;;;;13.44;54.61;98662.94;108362;1279;22519;-72
2022/04/26 15:25:52;;;;;;;;;;;;;;;13.61;54.16;98668.08;108293;1279;22636;-70
2022/04/26 15:28:19;;;;;;;;;;;;;;;13.91;54.17;98669.44;108280;1279;22541;-72
2022/04/26 15:30:46;;;;;;;;;;;;;;;14.20;54.36;98671.84;108342;1279;22618;-72
2022/04/26 15:33:13;;;;;;;;;;;;;;;15.07;53.40;98670.98;108362;1279;23920;-73
2022/04/26 15:35:42;;;;;;;;;;;;;;;15.00;53.49;98671.55;108281;1279;22552;-73
2022/04/26 15:38:11;;;;;;;;;;;;;;;14.84;53.52;98673.88;108307;1279;22540;-71
2022/04/26 15:40:39;;;;;;;;;;;;;;;14.59;53.16;98672.48;108320;1279;22535;-73
2022/04/26 15:43:06;;;;;;;;;;;;;;;14.22;53.01;98674.16;108315;1278;22527;-76
2022/04/26 15:45:34;;;;;;;;;;;;;;;14.17;52.28;98672.46;108312;1279;22522;-74
2022/04/26 15:48:00;;;;;;;;;;;;;;;14.92;50.37;98668.86;108317;1279;22525;-75
2022/04/26 15:50:28;;;;;;;;;;;;;;;16.46;49.29;98666.55;108334;1279;22519;-75
2022/04/26 15:52:55;;;;;;;;;;;;;;;17.88;48.92;98667.05;108321;1279;22480;-77
2022/04/26 15:55:22;;;;;;;;;;;;;;;18.90;47.60;98664.67;108322;1278;22535;-75
2022/04/26 15:57:51;;;;;;;;;;;;;;;19.73;47.59;98663.92;108331;1279;22535;-74
2022/04/26 16:00:20;;;;;;;;;;;;;;;20.16;48.05;98662.69;108297;1279;24223;-74
2022/04/26 16:02:47;;;;;;;;;;;;;;;20.42;45.99;98663.34;108321;1279;22525;-74
2022/04/26 16:05:14;;;;;;;;;;;;;;;20.39;45.44;98662.41;108309;1279;24271;-74
2022/04/26 16:07:41;;;;;;;;;;;;;;;19.43;45.69;98668.06;108311;1279;22545;-72
2022/04/26 16:21:10;;;;;;;;;;;;;;;18.81;44.77;98673.05;108305;1279;22516;-74
2022/04/26 16:23:37;;;;;;;;;;;;;;;19.20;46.61;98666.85;108316;1279;22593;-74
2022/04/26 16:26:06;;;;;;;;;;;;;;;19.43;45.94;98664.23;108289;1278;23959;-74
2022/04/26 16:28:34;;;;;;;;;;;;;;;19.15;45.54;98665.03;108311;1279;22539;-74
2022/04/26 16:31:02;;;;;;;;;;;;;;;18.35;44.76;98665.36;108281;1279;22542;-73
2022/04/26 16:33:29;;;;;;;;;;;;;;;17.61;45.06;98667.86;108306;1279;22532;-75
2022/04/26 16:35:57;;;;;;;;;;;;;;;17.18;45.84;98669.13;108335;1279;25229;-74
2022/04/26 16:38:23;;;;;;;;;;;;;;;16.80;46.84;98670.70;108295;1279;22541;-72
2022/04/26 16:40:50;;;;;;;;;;;;;;;16.63;46.84;98674.51;108296;1279;22522;-76
2022/04/26 16:43:17;;;;;;;;;;;;;;;16.37;46.01;98679.09;108299;1279;22542;-74
2022/04/26 16:45:45;;;;;;;;;;;;;;;15.89;46.88;98677.87;108316;1279;22531;-74
2022/04/26 16:48:12;;;;;;;;;;;;;;;15.55;47.31;98681.09;108300;1279;22603;-72
2022/04/26 16:50:39;;;;;;;;;;;;;;;15.28;47.86;98682.67;108291;1279;22548;-70
2022/04/26 16:53:05;;;;;;;;;;;;;;;15.04;48.36;98688.55;108318;1279;22527;-74
2022/04/26 16:55:32;;;;;;;;;;;;;;;14.83;48.41;98694.31;108295;1279;22538;-77
2022/04/26 16:58:01;;;;;;;;;;;;;;;14.50;48.62;98699.30;108281;1279;24915;-72
2022/04/26 17:00:29;;;;;;;;;;;;;;;14.12;49.07;98701.73;108315;1279;22605;-70
2022/04/26 17:02:56;;;;;;;;;;;;;;;13.73;49.46;98702.52;108283;1279;22528;-72
2022/04/26 17:05:23;;;;;;;;;;;;;;;13.29;50.37;98703.99;108303;1279;22598;-73
2022/04/26 17:07:50;;;;;;;;;;;;;;;12.94;50.81;98706.51;108312;1279;22533;-76
2022/04/26 17:10:18;;;;;;;;;;;;;;;12.65;51.27;98708.86;108300;1279;22602;-72
2022/04/26 17:12:48;;;;;;;;;;;;;;;12.34;51.51;98716.16;108308;1279;22678;-71